sensor_id;sensor_type;location;lat;lon;timestamp;P1;durP1;ratioP1;P2;durP2;ratioP2
70997;SDS011;58663;52.040;4.634;2022-09-25T00:00:11;5.88;;;3.80;;
70997;SDS011;58663;52.040;4.634;2022-09-25T00:02:37;8.73;;;3.38;;
70997;SDS011;58663;52.040;4.634;2022-09-25T00:05:02;8.15;;;3.72;;
70997;SDS011;58663;52.040;4.634;2022-09-25T00:07:28;6.60;;;3.85;;
70997;SDS011;58663;52.040;4.634;2022-09-25T00:09:53;6.50;;;3.70;;
70997;SDS011;58663;52.040;4.634;2022-09-25T00:12:19;6.40;;;3.63;;
70997;SDS011;58663;52.040;4.634;2022-09-25T00:14:48;6.07;;;4.20;;
70997;SDS011;58663;52.040;4.634;2022-09-25T00:17:14;5.35;;;3.58;;
70997;SDS011;58663;52.040;4.634;2022-09-25T00:19:39;7.35;;;4.07;;
70997;SDS011;58663;52.040;4.634;2022-09-25T00:22:14;10.07;;;4.03;;
70997;SDS011;58663;52.040;4.634;2022-09-25T00:24:40;13.63;;;4.53;;
70997;SDS011;58663;52.040;4.634;2022-09-25T00:27:06;9.73;;;4.15;;
70997;SDS011;58663;52.040;4.634;2022-09-25T00:29:34;7.18;;;3.80;;
70997;SDS011;58663;52.040;4.634;2022-09-25T00:32:00;9.85;;;3.92;;
70997;SDS011;58663;52.040;4.634;2022-09-25T00:34:27;9.10;;;4.68;;
70997;SDS011;58663;52.040;4.634;2022-09-25T00:36:52;5.90;;;4.03;;
70997;SDS011;58663;52.040;4.634;2022-09-25T00:39:18;9.07;;;4.10;;
70997;SDS011;58663;52.040;4.634;2022-09-25T00:41:44;5.88;;;4.07;;
70997;SDS011;58663;52.040;4.634;2022-09-25T00:47:14;7.53;;;4.05;;
70997;SDS011;58663;52.040;4.634;2022-09-25T00:49:44;6.90;;;3.75;;
70997;SDS011;58663;52.040;4.634;2022-09-25T00:52:11;6.50;;;3.90;;
70997;SDS011;58663;52.040;4.634;2022-09-25T00:54:39;6.00;;;3.83;;
70997;SDS011;58663;52.040;4.634;2022-09-25T00:57:11;5.28;;;4.05;;
70997;SDS011;58663;52.040;4.634;2022-09-25T00:59:39;8.13;;;4.20;;
70997;SDS011;58663;52.040;4.634;2022-09-25T01:02:08;5.13;;;3.60;;
70997;SDS011;58663;52.040;4.634;2022-09-25T01:04:38;9.35;;;4.50;;
70997;SDS011;58663;52.040;4.634;2022-09-25T01:07:05;8.02;;;3.90;;
70997;SDS011;58663;52.040;4.634;2022-09-25T01:09:34;6.65;;;3.92;;
70997;SDS011;58663;52.040;4.634;2022-09-25T01:12:00;6.20;;;3.65;;
70997;SDS011;58663;52.040;4.634;2022-09-25T01:14:26;9.43;;;4.25;;
70997;SDS011;58663;52.040;4.634;2022-09-25T01:16:54;13.70;;;4.13;;
70997;SDS011;58663;52.040;4.634;2022-09-25T01:31:13;8.02;;;4.50;;
70997;SDS011;58663;52.040;4.634;2022-09-25T01:33:44;7.15;;;4.03;;
70997;SDS011;58663;52.040;4.634;2022-09-25T01:36:14;7.53;;;3.83;;
70997;SDS011;58663;52.040;4.634;2022-09-25T01:41:29;7.43;;;4.28;;
70997;SDS011;58663;52.040;4.634;2022-09-25T01:46:39;8.75;;;3.65;;
70997;SDS011;58663;52.040;4.634;2022-09-25T01:49:12;7.55;;;3.95;;
70997;SDS011;58663;52.040;4.634;2022-09-25T01:51:48;12.57;;;3.90;;
70997;SDS011;58663;52.040;4.634;2022-09-25T01:54:19;9.43;;;4.35;;
70997;SDS011;58663;52.040;4.634;2022-09-25T01:59:46;8.32;;;4.18;;
70997;SDS011;58663;52.040;4.634;2022-09-25T02:02:18;10.43;;;4.47;;
70997;SDS011;58663;52.040;4.634;2022-09-25T02:05:08;7.55;;;4.03;;
70997;SDS011;58663;52.040;4.634;2022-09-25T02:07:38;8.25;;;4.13;;
70997;SDS011;58663;52.040;4.634;2022-09-25T02:10:30;7.07;;;3.90;;
70997;SDS011;58663;52.040;4.634;2022-09-25T02:13:12;9.15;;;4.20;;
70997;SDS011;58663;52.040;4.634;2022-09-25T02:15:50;7.72;;;4.43;;
70997;SDS011;58663;52.040;4.634;2022-09-25T02:18:18;7.00;;;4.10;;
70997;SDS011;58663;52.040;4.634;2022-09-25T02:23:47;7.68;;;4.25;;
70997;SDS011;58663;52.040;4.634;2022-09-25T02:26:32;10.70;;;4.88;;
70997;SDS011;58663;52.040;4.634;2022-09-25T02:28:58;13.02;;;4.55;;
70997;SDS011;58663;52.040;4.634;2022-09-25T02:31:25;7.15;;;4.50;;
70997;SDS011;58663;52.040;4.634;2022-09-25T02:33:55;8.10;;;4.75;;
70997;SDS011;58663;52.040;4.634;2022-09-25T02:36:21;8.35;;;4.78;;
70997;SDS011;58663;52.040;4.634;2022-09-25T02:38:50;9.10;;;5.35;;
70997;SDS011;58663;52.040;4.634;2022-09-25T02:48:53;10.38;;;4.55;;
70997;SDS011;58663;52.040;4.634;2022-09-25T02:54:10;11.55;;;4.45;;
70997;SDS011;58663;52.040;4.634;2022-09-25T02:56:43;8.70;;;4.70;;
70997;SDS011;58663;52.040;4.634;2022-09-25T02:59:13;8.88;;;5.25;;
70997;SDS011;58663;52.040;4.634;2022-09-25T03:01:43;9.05;;;4.90;;
70997;SDS011;58663;52.040;4.634;2022-09-25T03:04:11;7.95;;;4.57;;
70997;SDS011;58663;52.040;4.634;2022-09-25T03:06:37;8.23;;;4.63;;
70997;SDS011;58663;52.040;4.634;2022-09-25T03:09:04;10.18;;;5.00;;
70997;SDS011;58663;52.040;4.634;2022-09-25T03:11:34;7.80;;;4.72;;
70997;SDS011;58663;52.040;4.634;2022-09-25T03:14:04;15.45;;;4.68;;
70997;SDS011;58663;52.040;4.634;2022-09-25T03:18:58;11.73;;;4.15;;
70997;SDS011;58663;52.040;4.634;2022-09-25T03:21:25;10.38;;;4.30;;
70997;SDS011;58663;52.040;4.634;2022-09-25T03:23:50;14.98;;;5.63;;
70997;SDS011;58663;52.040;4.634;2022-09-25T03:26:16;9.63;;;4.10;;
70997;SDS011;58663;52.040;4.634;2022-09-25T03:28:41;8.48;;;3.85;;
70997;SDS011;58663;52.040;4.634;2022-09-25T03:31:09;10.43;;;4.65;;
70997;SDS011;58663;52.040;4.634;2022-09-25T03:33:36;8.73;;;4.40;;
70997;SDS011;58663;52.040;4.634;2022-09-25T03:36:13;10.45;;;4.32;;
70997;SDS011;58663;52.040;4.634;2022-09-25T03:38:43;7.93;;;4.10;;
70997;SDS011;58663;52.040;4.634;2022-09-25T03:41:11;6.57;;;3.40;;
70997;SDS011;58663;52.040;4.634;2022-09-25T03:43:38;8.32;;;3.97;;
70997;SDS011;58663;52.040;4.634;2022-09-25T03:46:05;10.70;;;3.85;;
70997;SDS011;58663;52.040;4.634;2022-09-25T03:48:32;7.10;;;4.00;;
70997;SDS011;58663;52.040;4.634;2022-09-25T03:50:57;5.88;;;3.38;;
70997;SDS011;58663;52.040;4.634;2022-09-25T03:53:24;6.68;;;3.80;;
70997;SDS011;58663;52.040;4.634;2022-09-25T03:55:50;5.25;;;3.47;;
70997;SDS011;58663;52.040;4.634;2022-09-25T03:58:16;6.50;;;3.35;;
70997;SDS011;58663;52.040;4.634;2022-09-25T04:00:45;8.38;;;2.83;;
70997;SDS011;58663;52.040;4.634;2022-09-25T04:03:11;8.50;;;3.80;;
70997;SDS011;58663;52.040;4.634;2022-09-25T04:05:38;4.75;;;3.28;;
70997;SDS011;58663;52.040;4.634;2022-09-25T04:08:04;8.32;;;3.20;;
70997;SDS011;58663;52.040;4.634;2022-09-25T04:10:30;7.38;;;3.40;;
70997;SDS011;58663;52.040;4.634;2022-09-25T04:12:56;6.65;;;3.22;;
70997;SDS011;58663;52.040;4.634;2022-09-25T04:15:22;5.93;;;3.25;;
70997;SDS011;58663;52.040;4.634;2022-09-25T04:17:48;8.52;;;3.58;;
70997;SDS011;58663;52.040;4.634;2022-09-25T04:20:14;5.90;;;3.00;;
70997;SDS011;58663;52.040;4.634;2022-09-25T04:22:39;8.68;;;4.20;;
70997;SDS011;58663;52.040;4.634;2022-09-25T04:25:05;6.40;;;3.55;;
70997;SDS011;58663;52.040;4.634;2022-09-25T04:27:31;6.30;;;3.35;;
70997;SDS011;58663;52.040;4.634;2022-09-25T04:29:57;4.60;;;3.15;;
70997;SDS011;58663;52.040;4.634;2022-09-25T04:32:22;6.85;;;3.40;;
70997;SDS011;58663;52.040;4.634;2022-09-25T04:35:06;5.75;;;2.75;;
70997;SDS011;58663;52.040;4.634;2022-09-25T04:37:32;10.18;;;3.50;;
70997;SDS011;58663;52.040;4.634;2022-09-25T04:39:57;5.35;;;3.22;;
70997;SDS011;58663;52.040;4.634;2022-09-25T04:42:23;9.95;;;3.15;;
70997;SDS011;58663;52.040;4.634;2022-09-25T04:44:58;6.50;;;2.83;;
70997;SDS011;58663;52.040;4.634;2022-09-25T04:47:24;5.53;;;2.47;;
70997;SDS011;58663;52.040;4.634;2022-09-25T04:49:51;6.80;;;3.00;;
70997;SDS011;58663;52.040;4.634;2022-09-25T04:52:17;8.95;;;2.80;;
70997;SDS011;58663;52.040;4.634;2022-09-25T04:54:44;7.22;;;2.97;;
70997;SDS011;58663;52.040;4.634;2022-09-25T04:57:17;7.72;;;3.28;;
70997;SDS011;58663;52.040;4.634;2022-09-25T04:59:43;10.75;;;2.97;;
70997;SDS011;58663;52.040;4.634;2022-09-25T05:02:10;6.88;;;2.58;;
70997;SDS011;58663;52.040;4.634;2022-09-25T05:04:39;7.18;;;3.30;;
70997;SDS011;58663;52.040;4.634;2022-09-25T05:07:04;3.47;;;2.47;;
70997;SDS011;58663;52.040;4.634;2022-09-25T05:09:30;4.85;;;2.72;;
70997;SDS011;58663;52.040;4.634;2022-09-25T05:11:56;4.05;;;2.40;;
70997;SDS011;58663;52.040;4.634;2022-09-25T05:14:22;7.43;;;2.70;;
70997;SDS011;58663;52.040;4.634;2022-09-25T05:16:48;7.07;;;2.80;;
70997;SDS011;58663;52.040;4.634;2022-09-25T05:19:14;9.95;;;3.03;;
70997;SDS011;58663;52.040;4.634;2022-09-25T05:21:40;6.60;;;2.95;;
70997;SDS011;58663;52.040;4.634;2022-09-25T05:24:06;4.55;;;2.63;;
70997;SDS011;58663;52.040;4.634;2022-09-25T05:26:33;5.15;;;2.90;;
70997;SDS011;58663;52.040;4.634;2022-09-25T05:28:59;11.68;;;2.83;;
70997;SDS011;58663;52.040;4.634;2022-09-25T05:31:25;4.50;;;3.03;;
70997;SDS011;58663;52.040;4.634;2022-09-25T05:33:51;3.63;;;2.42;;
70997;SDS011;58663;52.040;4.634;2022-09-25T05:36:18;6.60;;;2.50;;
70997;SDS011;58663;52.040;4.634;2022-09-25T05:38:44;4.57;;;2.28;;
70997;SDS011;58663;52.040;4.634;2022-09-25T05:41:09;7.82;;;2.75;;
70997;SDS011;58663;52.040;4.634;2022-09-25T05:43:42;6.25;;;2.65;;
70997;SDS011;58663;52.040;4.634;2022-09-25T05:46:11;4.40;;;2.75;;
70997;SDS011;58663;52.040;4.634;2022-09-25T05:48:37;6.82;;;2.70;;
70997;SDS011;58663;52.040;4.634;2022-09-25T05:51:03;7.13;;;2.67;;
70997;SDS011;58663;52.040;4.634;2022-09-25T05:53:29;5.78;;;3.08;;
70997;SDS011;58663;52.040;4.634;2022-09-25T05:56:01;5.82;;;3.00;;
70997;SDS011;58663;52.040;4.634;2022-09-25T05:58:29;5.82;;;3.22;;
70997;SDS011;58663;52.040;4.634;2022-09-25T06:00:59;8.63;;;3.67;;
70997;SDS011;58663;52.040;4.634;2022-09-25T06:03:27;9.02;;;3.42;;
70997;SDS011;58663;52.040;4.634;2022-09-25T06:06:02;9.02;;;3.70;;
70997;SDS011;58663;52.040;4.634;2022-09-25T06:08:28;8.25;;;3.53;;
70997;SDS011;58663;52.040;4.634;2022-09-25T06:10:57;8.55;;;4.18;;
70997;SDS011;58663;52.040;4.634;2022-09-25T06:13:24;6.82;;;3.90;;
70997;SDS011;58663;52.040;4.634;2022-09-25T06:15:50;8.20;;;3.65;;
70997;SDS011;58663;52.040;4.634;2022-09-25T06:18:20;8.23;;;3.22;;
70997;SDS011;58663;52.040;4.634;2022-09-25T06:20:47;8.38;;;3.28;;
70997;SDS011;58663;52.040;4.634;2022-09-25T06:23:13;5.97;;;3.28;;
70997;SDS011;58663;52.040;4.634;2022-09-25T06:25:39;8.32;;;3.60;;
70997;SDS011;58663;52.040;4.634;2022-09-25T06:28:05;8.23;;;3.50;;
70997;SDS011;58663;52.040;4.634;2022-09-25T06:30:32;8.95;;;3.50;;
70997;SDS011;58663;52.040;4.634;2022-09-25T06:33:12;10.60;;;3.45;;
70997;SDS011;58663;52.040;4.634;2022-09-25T06:35:47;6.47;;;3.22;;
70997;SDS011;58663;52.040;4.634;2022-09-25T06:38:20;11.52;;;3.42;;
70997;SDS011;58663;52.040;4.634;2022-09-25T06:40:47;6.15;;;3.40;;
70997;SDS011;58663;52.040;4.634;2022-09-25T06:43:13;8.00;;;3.72;;
70997;SDS011;58663;52.040;4.634;2022-09-25T06:45:39;11.07;;;4.22;;
70997;SDS011;58663;52.040;4.634;2022-09-25T06:48:10;10.80;;;3.72;;
70997;SDS011;58663;52.040;4.634;2022-09-25T06:50:47;9.07;;;3.95;;
70997;SDS011;58663;52.040;4.634;2022-09-25T06:53:17;11.18;;;3.63;;
70997;SDS011;58663;52.040;4.634;2022-09-25T06:55:43;5.53;;;3.53;;
70997;SDS011;58663;52.040;4.634;2022-09-25T06:58:10;9.38;;;3.17;;
70997;SDS011;58663;52.040;4.634;2022-09-25T07:00:37;7.15;;;3.65;;
70997;SDS011;58663;52.040;4.634;2022-09-25T07:03:02;8.80;;;3.72;;
70997;SDS011;58663;52.040;4.634;2022-09-25T07:05:46;8.93;;;3.28;;
70997;SDS011;58663;52.040;4.634;2022-09-25T07:08:13;6.88;;;3.30;;
70997;SDS011;58663;52.040;4.634;2022-09-25T07:10:49;7.07;;;3.22;;
70997;SDS011;58663;52.040;4.634;2022-09-25T07:13:16;7.18;;;2.80;;
70997;SDS011;58663;52.040;4.634;2022-09-25T07:15:48;3.78;;;2.65;;
70997;SDS011;58663;52.040;4.634;2022-09-25T07:18:15;4.60;;;2.50;;
70997;SDS011;58663;52.040;4.634;2022-09-25T07:20:40;4.82;;;2.92;;
70997;SDS011;58663;52.040;4.634;2022-09-25T07:23:11;3.80;;;2.70;;
70997;SDS011;58663;52.040;4.634;2022-09-25T07:25:41;7.53;;;3.75;;
70997;SDS011;58663;52.040;4.634;2022-09-25T07:28:07;4.57;;;2.78;;
70997;SDS011;58663;52.040;4.634;2022-09-25T07:30:33;6.35;;;2.55;;
70997;SDS011;58663;52.040;4.634;2022-09-25T07:32:59;6.45;;;3.10;;
70997;SDS011;58663;52.040;4.634;2022-09-25T07:35:25;5.07;;;2.58;;
70997;SDS011;58663;52.040;4.634;2022-09-25T07:37:57;5.55;;;2.42;;
70997;SDS011;58663;52.040;4.634;2022-09-25T07:40:23;10.32;;;2.92;;
70997;SDS011;58663;52.040;4.634;2022-09-25T07:42:51;5.10;;;3.13;;
70997;SDS011;58663;52.040;4.634;2022-09-25T07:45:17;9.57;;;2.72;;
70997;SDS011;58663;52.040;4.634;2022-09-25T07:47:43;7.72;;;2.35;;
70997;SDS011;58663;52.040;4.634;2022-09-25T07:50:08;5.60;;;2.60;;
70997;SDS011;58663;52.040;4.634;2022-09-25T07:52:34;5.95;;;2.10;;
70997;SDS011;58663;52.040;4.634;2022-09-25T07:54:59;8.15;;;2.22;;
70997;SDS011;58663;52.040;4.634;2022-09-25T07:57:25;6.00;;;1.80;;
70997;SDS011;58663;52.040;4.634;2022-09-25T07:59:51;4.78;;;1.80;;
70997;SDS011;58663;52.040;4.634;2022-09-25T08:02:17;3.67;;;1.95;;
70997;SDS011;58663;52.040;4.634;2022-09-25T08:04:42;3.10;;;1.67;;
70997;SDS011;58663;52.040;4.634;2022-09-25T08:07:08;5.70;;;1.60;;
70997;SDS011;58663;52.040;4.634;2022-09-25T08:09:33;4.93;;;1.52;;
70997;SDS011;58663;52.040;4.634;2022-09-25T08:11:59;14.13;;;2.00;;
70997;SDS011;58663;52.040;4.634;2022-09-25T08:14:24;5.47;;;1.63;;
70997;SDS011;58663;52.040;4.634;2022-09-25T08:16:50;2.20;;;1.30;;
70997;SDS011;58663;52.040;4.634;2022-09-25T08:19:20;7.50;;;1.33;;
70997;SDS011;58663;52.040;4.634;2022-09-25T08:21:47;4.57;;;1.35;;
70997;SDS011;58663;52.040;4.634;2022-09-25T08:24:13;3.60;;;1.10;;
70997;SDS011;58663;52.040;4.634;2022-09-25T08:26:39;4.85;;;1.27;;
70997;SDS011;58663;52.040;4.634;2022-09-25T08:29:05;4.68;;;1.60;;
70997;SDS011;58663;52.040;4.634;2022-09-25T08:31:32;4.25;;;1.45;;
70997;SDS011;58663;52.040;4.634;2022-09-25T08:33:58;8.23;;;1.10;;
70997;SDS011;58663;52.040;4.634;2022-09-25T08:36:24;7.32;;;1.10;;
70997;SDS011;58663;52.040;4.634;2022-09-25T08:38:50;4.88;;;1.20;;
70997;SDS011;58663;52.040;4.634;2022-09-25T08:46:46;5.45;;;1.33;;
70997;SDS011;58663;52.040;4.634;2022-09-25T08:49:37;2.20;;;0.77;;
70997;SDS011;58663;52.040;4.634;2022-09-25T08:52:10;2.97;;;1.20;;
70997;SDS011;58663;52.040;4.634;2022-09-25T08:54:40;5.20;;;1.25;;
70997;SDS011;58663;52.040;4.634;2022-09-25T08:57:10;2.42;;;1.02;;
70997;SDS011;58663;52.040;4.634;2022-09-25T08:59:46;4.20;;;0.80;;
70997;SDS011;58663;52.040;4.634;2022-09-25T09:07:17;1.85;;;0.70;;
70997;SDS011;58663;52.040;4.634;2022-09-25T09:09:49;4.22;;;0.85;;
70997;SDS011;58663;52.040;4.634;2022-09-25T09:12:18;6.25;;;0.75;;
70997;SDS011;58663;52.040;4.634;2022-09-25T09:14:51;3.78;;;1.00;;
70997;SDS011;58663;52.040;4.634;2022-09-25T09:17:21;5.72;;;2.00;;
70997;SDS011;58663;52.040;4.634;2022-09-25T09:19:51;3.67;;;1.20;;
70997;SDS011;58663;52.040;4.634;2022-09-25T09:22:20;4.55;;;1.00;;
70997;SDS011;58663;52.040;4.634;2022-09-25T09:25:08;1.90;;;0.60;;
70997;SDS011;58663;52.040;4.634;2022-09-25T09:33:10;5.90;;;1.20;;
70997;SDS011;58663;52.040;4.634;2022-09-25T09:44:11;3.47;;;1.00;;
70997;SDS011;58663;52.040;4.634;2022-09-25T09:47:06;3.72;;;1.13;;
70997;SDS011;58663;52.040;4.634;2022-09-25T09:49:44;3.22;;;0.95;;
70997;SDS011;58663;52.040;4.634;2022-09-25T09:54:58;5.07;;;0.90;;
70997;SDS011;58663;52.040;4.634;2022-09-25T09:57:44;2.63;;;0.85;;
70997;SDS011;58663;52.040;4.634;2022-09-25T10:00:14;2.42;;;0.65;;
70997;SDS011;58663;52.040;4.634;2022-09-25T10:05:31;2.65;;;0.80;;
70997;SDS011;58663;52.040;4.634;2022-09-25T10:07:58;4.88;;;0.80;;
70997;SDS011;58663;52.040;4.634;2022-09-25T10:10:33;1.35;;;0.52;;
70997;SDS011;58663;52.040;4.634;2022-09-25T10:13:05;0.77;;;0.55;;
70997;SDS011;58663;52.040;4.634;2022-09-25T10:18:13;1.33;;;0.82;;
70997;SDS011;58663;52.040;4.634;2022-09-25T10:20:40;3.13;;;0.68;;
70997;SDS011;58663;52.040;4.634;2022-09-25T10:23:26;2.33;;;0.63;;
70997;SDS011;58663;52.040;4.634;2022-09-25T10:25:56;1.92;;;0.60;;
70997;SDS011;58663;52.040;4.634;2022-09-25T10:30:58;4.95;;;0.80;;
70997;SDS011;58663;52.040;4.634;2022-09-25T10:33:26;2.97;;;0.52;;
70997;SDS011;58663;52.040;4.634;2022-09-25T10:35:54;1.98;;;0.80;;
70997;SDS011;58663;52.040;4.634;2022-09-25T10:44:00;2.53;;;0.98;;
70997;SDS011;58663;52.040;4.634;2022-09-25T10:46:31;5.13;;;1.02;;
70997;SDS011;58663;52.040;4.634;2022-09-25T10:49:17;2.17;;;0.85;;
70997;SDS011;58663;52.040;4.634;2022-09-25T10:52:07;0.93;;;0.53;;
70997;SDS011;58663;52.040;4.634;2022-09-25T10:54:34;3.20;;;1.05;;
70997;SDS011;58663;52.040;4.634;2022-09-25T10:57:25;0.82;;;0.65;;
70997;SDS011;58663;52.040;4.634;2022-09-25T11:00:03;2.95;;;0.68;;
70997;SDS011;58663;52.040;4.634;2022-09-25T11:05:05;1.95;;;0.50;;
70997;SDS011;58663;52.040;4.634;2022-09-25T11:07:32;2.83;;;1.30;;
70997;SDS011;58663;52.040;4.634;2022-09-25T11:09:59;3.10;;;0.77;;
70997;SDS011;58663;52.040;4.634;2022-09-25T11:12:25;1.00;;;0.60;;
70997;SDS011;58663;52.040;4.634;2022-09-25T11:14:59;1.20;;;0.70;;
70997;SDS011;58663;52.040;4.634;2022-09-25T11:23:17;1.42;;;0.70;;
70997;SDS011;58663;52.040;4.634;2022-09-25T11:25:51;5.35;;;0.98;;
70997;SDS011;58663;52.040;4.634;2022-09-25T11:30:52;2.42;;;0.70;;
70997;SDS011;58663;52.040;4.634;2022-09-25T11:33:47;1.35;;;0.63;;
70997;SDS011;58663;52.040;4.634;2022-09-25T11:36:16;2.25;;;0.75;;
70997;SDS011;58663;52.040;4.634;2022-09-25T11:38:52;1.17;;;0.70;;
70997;SDS011;58663;52.040;4.634;2022-09-25T11:49:31;3.08;;;0.70;;
70997;SDS011;58663;52.040;4.634;2022-09-25T11:52:18;2.30;;;0.70;;
70997;SDS011;58663;52.040;4.634;2022-09-25T12:16:44;1.42;;;0.57;;
70997;SDS011;58663;52.040;4.634;2022-09-25T12:21:52;2.58;;;0.57;;
70997;SDS011;58663;52.040;4.634;2022-09-25T12:40:41;0.30;;;0.30;;
70997;SDS011;58663;52.040;4.634;2022-09-25T12:43:32;1.52;;;0.32;;
70997;SDS011;58663;52.040;4.634;2022-09-25T12:46:05;0.60;;;0.50;;
70997;SDS011;58663;52.040;4.634;2022-09-25T12:48:36;1.13;;;0.52;;
70997;SDS011;58663;52.040;4.634;2022-09-25T12:51:06;1.50;;;0.30;;
70997;SDS011;58663;52.040;4.634;2022-09-25T12:54:03;0.75;;;0.50;;
70997;SDS011;58663;52.040;4.634;2022-09-25T12:56:38;1.38;;;0.50;;
70997;SDS011;58663;52.040;4.634;2022-09-25T12:59:10;1.50;;;0.50;;
70997;SDS011;58663;52.040;4.634;2022-09-25T13:02:03;2.17;;;0.75;;
70997;SDS011;58663;52.040;4.634;2022-09-25T13:12:49;1.85;;;0.30;;
70997;SDS011;58663;52.040;4.634;2022-09-25T13:15:17;0.47;;;0.40;;
70997;SDS011;58663;52.040;4.634;2022-09-25T13:17:47;3.75;;;0.60;;
70997;SDS011;58663;52.040;4.634;2022-09-25T13:25:24;1.05;;;0.50;;
70997;SDS011;58663;52.040;4.634;2022-09-25T13:27:50;2.63;;;0.60;;
70997;SDS011;58663;52.040;4.634;2022-09-25T13:30:24;2.70;;;0.70;;
70997;SDS011;58663;52.040;4.634;2022-09-25T13:32:52;1.95;;;0.50;;
70997;SDS011;58663;52.040;4.634;2022-09-25T13:35:20;0.50;;;0.40;;
70997;SDS011;58663;52.040;4.634;2022-09-25T13:37:47;0.80;;;0.30;;
70997;SDS011;58663;52.040;4.634;2022-09-25T13:40:15;1.45;;;0.73;;
70997;SDS011;58663;52.040;4.634;2022-09-25T13:48:50;2.95;;;0.50;;
70997;SDS011;58663;52.040;4.634;2022-09-25T14:01:38;3.50;;;0.40;;
70997;SDS011;58663;52.040;4.634;2022-09-25T14:06:34;3.83;;;0.75;;
70997;SDS011;58663;52.040;4.634;2022-09-25T14:09:01;2.50;;;0.55;;
70997;SDS011;58663;52.040;4.634;2022-09-25T14:11:32;1.00;;;0.60;;
70997;SDS011;58663;52.040;4.634;2022-09-25T14:14:00;1.00;;;0.40;;
70997;SDS011;58663;52.040;4.634;2022-09-25T14:16:30;0.88;;;0.50;;
70997;SDS011;58663;52.040;4.634;2022-09-25T14:18:59;1.25;;;0.35;;
70997;SDS011;58663;52.040;4.634;2022-09-25T14:21:26;0.85;;;0.43;;
70997;SDS011;58663;52.040;4.634;2022-09-25T14:23:53;0.80;;;0.40;;
70997;SDS011;58663;52.040;4.634;2022-09-25T14:26:24;0.95;;;0.50;;
70997;SDS011;58663;52.040;4.634;2022-09-25T14:28:52;1.85;;;0.50;;
70997;SDS011;58663;52.040;4.634;2022-09-25T14:44:55;0.65;;;0.47;;
70997;SDS011;58663;52.040;4.634;2022-09-25T14:47:25;1.38;;;0.38;;
70997;SDS011;58663;52.040;4.634;2022-09-25T14:49:55;2.90;;;0.57;;
70997;SDS011;58663;52.040;4.634;2022-09-25T14:52:22;2.35;;;0.40;;
70997;SDS011;58663;52.040;4.634;2022-09-25T14:54:50;0.30;;;0.30;;
70997;SDS011;58663;52.040;4.634;2022-09-25T14:57:20;1.42;;;0.50;;
70997;SDS011;58663;52.040;4.634;2022-09-25T14:59:52;1.70;;;0.50;;
70997;SDS011;58663;52.040;4.634;2022-09-25T15:02:31;3.03;;;0.80;;
70997;SDS011;58663;52.040;4.634;2022-09-25T15:05:17;0.47;;;0.40;;
70997;SDS011;58663;52.040;4.634;2022-09-25T15:07:46;0.55;;;0.40;;
70997;SDS011;58663;52.040;4.634;2022-09-25T15:12:48;0.75;;;0.57;;
70997;SDS011;58663;52.040;4.634;2022-09-25T15:15:15;1.10;;;0.50;;
70997;SDS011;58663;52.040;4.634;2022-09-25T15:17:47;1.50;;;0.55;;
70997;SDS011;58663;52.040;4.634;2022-09-25T15:20:21;1.88;;;0.70;;
70997;SDS011;58663;52.040;4.634;2022-09-25T15:25:30;0.82;;;0.40;;
70997;SDS011;58663;52.040;4.634;2022-09-25T15:27:58;0.52;;;0.50;;
70997;SDS011;58663;52.040;4.634;2022-09-25T15:30:25;0.57;;;0.50;;
70997;SDS011;58663;52.040;4.634;2022-09-25T15:32:52;0.50;;;0.50;;
70997;SDS011;58663;52.040;4.634;2022-09-25T15:35:21;2.30;;;0.73;;
70997;SDS011;58663;52.040;4.634;2022-09-25T15:37:55;1.05;;;0.70;;
70997;SDS011;58663;52.040;4.634;2022-09-25T15:40:27;3.20;;;0.70;;
70997;SDS011;58663;52.040;4.634;2022-09-25T15:42:56;1.60;;;0.57;;
70997;SDS011;58663;52.040;4.634;2022-09-25T15:47:56;0.85;;;0.50;;
70997;SDS011;58663;52.040;4.634;2022-09-25T15:50:24;3.00;;;0.60;;
70997;SDS011;58663;52.040;4.634;2022-09-25T15:52:52;1.17;;;0.47;;
70997;SDS011;58663;52.040;4.634;2022-09-25T15:55:19;1.00;;;0.45;;
70997;SDS011;58663;52.040;4.634;2022-09-25T15:57:45;1.67;;;0.70;;
70997;SDS011;58663;52.040;4.634;2022-09-25T16:00:19;1.42;;;0.60;;
70997;SDS011;58663;52.040;4.634;2022-09-25T16:03:09;0.85;;;0.63;;
70997;SDS011;58663;52.040;4.634;2022-09-25T16:05:56;2.67;;;1.05;;
70997;SDS011;58663;52.040;4.634;2022-09-25T16:08:29;1.92;;;1.00;;
70997;SDS011;58663;52.040;4.634;2022-09-25T16:11:12;0.85;;;0.40;;
70997;SDS011;58663;52.040;4.634;2022-09-25T16:13:46;1.05;;;0.95;;
70997;SDS011;58663;52.040;4.634;2022-09-25T16:16:25;0.90;;;0.73;;
70997;SDS011;58663;52.040;4.634;2022-09-25T16:18:55;1.88;;;0.63;;
70997;SDS011;58663;52.040;4.634;2022-09-25T16:21:34;0.50;;;0.50;;
70997;SDS011;58663;52.040;4.634;2022-09-25T16:24:06;1.38;;;0.60;;
70997;SDS011;58663;52.040;4.634;2022-09-25T16:26:46;1.55;;;0.50;;
70997;SDS011;58663;52.040;4.634;2022-09-25T16:29:19;4.88;;;1.30;;
70997;SDS011;58663;52.040;4.634;2022-09-25T16:31:46;2.60;;;0.70;;
70997;SDS011;58663;52.040;4.634;2022-09-25T16:37:05;1.83;;;0.75;;
70997;SDS011;58663;52.040;4.634;2022-09-25T16:39:40;2.67;;;1.77;;
70997;SDS011;58663;52.040;4.634;2022-09-25T16:44:47;3.58;;;1.30;;
70997;SDS011;58663;52.040;4.634;2022-09-25T16:47:14;5.95;;;0.90;;
70997;SDS011;58663;52.040;4.634;2022-09-25T16:49:44;1.15;;;0.60;;
70997;SDS011;58663;52.040;4.634;2022-09-25T16:52:15;4.15;;;0.88;;
70997;SDS011;58663;52.040;4.634;2022-09-25T16:54:48;2.65;;;1.38;;
70997;SDS011;58663;52.040;4.634;2022-09-25T16:57:19;3.10;;;1.48;;
70997;SDS011;58663;52.040;4.634;2022-09-25T16:59:46;4.55;;;1.02;;
70997;SDS011;58663;52.040;4.634;2022-09-25T17:05:06;1.40;;;1.00;;
70997;SDS011;58663;52.040;4.634;2022-09-25T17:07:41;3.03;;;0.90;;
70997;SDS011;58663;52.040;4.634;2022-09-25T17:10:11;1.50;;;0.80;;
70997;SDS011;58663;52.040;4.634;2022-09-25T17:12:39;0.80;;;0.70;;
70997;SDS011;58663;52.040;4.634;2022-09-25T17:15:06;4.25;;;1.02;;
70997;SDS011;58663;52.040;4.634;2022-09-25T17:17:34;0.70;;;0.70;;
70997;SDS011;58663;52.040;4.634;2022-09-25T17:19:59;2.42;;;1.00;;
70997;SDS011;58663;52.040;4.634;2022-09-25T17:22:25;2.38;;;0.73;;
70997;SDS011;58663;52.040;4.634;2022-09-25T17:24:54;5.68;;;1.10;;
70997;SDS011;58663;52.040;4.634;2022-09-25T17:27:23;0.60;;;0.60;;
70997;SDS011;58663;52.040;4.634;2022-09-25T17:29:48;3.00;;;0.90;;
70997;SDS011;58663;52.040;4.634;2022-09-25T17:32:14;1.33;;;0.77;;
70997;SDS011;58663;52.040;4.634;2022-09-25T17:34:43;1.25;;;0.95;;
70997;SDS011;58663;52.040;4.634;2022-09-25T17:37:09;1.33;;;0.90;;
70997;SDS011;58663;52.040;4.634;2022-09-25T17:39:36;2.78;;;1.05;;
70997;SDS011;58663;52.040;4.634;2022-09-25T17:42:02;2.78;;;1.08;;
70997;SDS011;58663;52.040;4.634;2022-09-25T17:44:28;2.03;;;0.80;;
70997;SDS011;58663;52.040;4.634;2022-09-25T17:46:54;0.88;;;0.88;;
70997;SDS011;58663;52.040;4.634;2022-09-25T17:49:23;1.00;;;0.90;;
70997;SDS011;58663;52.040;4.634;2022-09-25T17:51:49;4.40;;;1.00;;
70997;SDS011;58663;52.040;4.634;2022-09-25T17:54:15;1.70;;;0.98;;
70997;SDS011;58663;52.040;4.634;2022-09-25T17:56:41;2.35;;;0.80;;
70997;SDS011;58663;52.040;4.634;2022-09-25T17:59:09;4.32;;;1.13;;
70997;SDS011;58663;52.040;4.634;2022-09-25T18:01:35;0.80;;;0.80;;
70997;SDS011;58663;52.040;4.634;2022-09-25T18:04:02;2.78;;;1.45;;
70997;SDS011;58663;52.040;4.634;2022-09-25T18:06:37;6.13;;;0.88;;
70997;SDS011;58663;52.040;4.634;2022-09-25T18:09:03;4.82;;;1.02;;
70997;SDS011;58663;52.040;4.634;2022-09-25T18:11:28;1.92;;;1.00;;
70997;SDS011;58663;52.040;4.634;2022-09-25T18:13:54;3.30;;;1.00;;
70997;SDS011;58663;52.040;4.634;2022-09-25T18:16:31;3.05;;;0.90;;
70997;SDS011;58663;52.040;4.634;2022-09-25T18:18:57;10.23;;;1.00;;
70997;SDS011;58663;52.040;4.634;2022-09-25T18:21:41;1.95;;;0.98;;